Time;durP1;ratioP1;P1;durP2;ratioP2;P2;SDS_P1;SDS_P2;PMS_P1;PMS_P2;Temp;Humidity;BMP_temperature;BMP_pressure;BME280_temperature;BME280_humidity;BME280_pressure;Samples;Min_cycle;Max_cycle;Signal;HPM_P1;HPM_P2
2024/03/26 00:00:18;;;;;;;5.70;3.30;;;;;;;;;;4957307;28;20058;-83
2024/03/26 00:03:03;;;;;;;7.38;2.90;;;;;;;;;;4971532;28;20046;-83
2024/03/26 00:05:51;;;;;;;5.15;3.00;;;;;;;;;;4967258;28;20062;-82
2024/03/26 00:08:36;;;;;;;6.53;2.72;;;;;;;;;;4989274;28;20062;-83
2024/03/26 00:11:24;;;;;;;5.57;3.17;;;;;;;;;;4967868;28;20094;-82
2024/03/26 00:14:09;;;;;;;6.55;2.88;;;;;;;;;;4977099;28;20077;-82
2024/03/26 00:16:54;;;;;;;6.35;3.05;;;;;;;;;;4991242;28;20019;-82
2024/03/26 00:19:38;;;;;;;11.02;3.95;;;;;;;;;;5004408;28;20091;-81
2024/03/26 00:22:25;;;;;;;10.63;3.28;;;;;;;;;;4970967;28;20536;-83
2024/03/26 00:25:10;;;;;;;11.38;3.75;;;;;;;;;;4970760;28;20043;-83
2024/03/26 00:27:55;;;;;;;6.88;3.00;;;;;;;;;;4969434;28;20404;-83
2024/03/26 00:30:40;;;;;;;6.85;3.03;;;;;;;;;;4965641;28;20030;-83
2024/03/26 00:33:26;;;;;;;8.40;2.92;;;;;;;;;;4971665;28;20027;-83
2024/03/26 00:36:11;;;;;;;6.47;2.95;;;;;;;;;;4963044;28;20441;-83
2024/03/26 00:38:57;;;;;;;6.72;2.78;;;;;;;;;;4978478;28;20037;-82
2024/03/26 00:41:42;;;;;;;6.88;2.90;;;;;;;;;;4970765;28;20027;-83
2024/03/26 00:44:27;;;;;;;6.43;2.72;;;;;;;;;;4978862;28;20088;-82
2024/03/26 00:47:15;;;;;;;7.18;2.90;;;;;;;;;;4987067;28;20112;-82
2024/03/26 00:50:00;;;;;;;8.02;3.28;;;;;;;;;;4979662;28;20027;-82
2024/03/26 00:52:46;;;;;;;11.32;3.50;;;;;;;;;;4962962;28;20058;-82
2024/03/26 00:55:30;;;;;;;6.75;3.10;;;;;;;;;;4971710;28;20045;-82
2024/03/26 00:58:15;;;;;;;6.25;3.28;;;;;;;;;;4950785;28;20023;-82
2024/03/26 01:01:07;;;;;;;6.68;2.80;;;;;;;;;;4999265;28;20028;-81
2024/03/26 01:03:52;;;;;;;7.45;4.15;;;;;;;;;;4968550;28;20381;-81
2024/03/26 01:06:38;;;;;;;7.90;3.25;;;;;;;;;;4967394;28;20361;-82
2024/03/26 01:09:23;;;;;;;7.18;3.45;;;;;;;;;;4981660;28;20030;-83
2024/03/26 01:12:08;;;;;;;7.15;2.97;;;;;;;;;;4968641;28;20101;-82
2024/03/26 01:14:54;;;;;;;8.15;3.00;;;;;;;;;;4969636;28;20258;-82
2024/03/26 01:17:39;;;;;;;6.65;2.80;;;;;;;;;;4977123;28;20392;-82
2024/03/26 01:20:24;;;;;;;5.00;2.63;;;;;;;;;;4992212;28;20091;-82
2024/03/26 01:23:09;;;;;;;5.05;2.45;;;;;;;;;;4997978;28;20023;-81
2024/03/26 01:25:55;;;;;;;4.72;2.28;;;;;;;;;;4974793;28;20101;-81
2024/03/26 01:28:40;;;;;;;7.05;2.97;;;;;;;;;;4997468;28;20022;-82
2024/03/26 01:31:25;;;;;;;6.95;2.72;;;;;;;;;;4977403;28;20095;-82
2024/03/26 01:34:10;;;;;;;6.70;2.47;;;;;;;;;;4973485;28;20030;-82
2024/03/26 01:36:55;;;;;;;4.50;2.50;;;;;;;;;;4969956;28;20031;-83
2024/03/26 01:39:40;;;;;;;5.70;2.13;;;;;;;;;;4973360;28;20027;-83
2024/03/26 01:42:26;;;;;;;7.53;2.40;;;;;;;;;;4967667;28;20031;-83
2024/03/26 01:45:11;;;;;;;5.55;2.33;;;;;;;;;;4966509;28;20031;-83
2024/03/26 01:47:56;;;;;;;4.40;2.28;;;;;;;;;;4989675;28;20036;-82
2024/03/26 01:50:42;;;;;;;4.63;2.60;;;;;;;;;;4976676;28;20034;-83
2024/03/26 01:53:27;;;;;;;8.48;2.55;;;;;;;;;;4967135;28;20039;-83
2024/03/26 01:56:14;;;;;;;8.05;3.03;;;;;;;;;;4975341;28;20057;-82
2024/03/26 01:59:00;;;;;;;5.38;2.60;;;;;;;;;;4971323;28;20512;-82
2024/03/26 02:01:45;;;;;;;9.18;3.53;;;;;;;;;;4974840;28;20536;-81
2024/03/26 02:04:30;;;;;;;6.75;2.90;;;;;;;;;;5015367;28;20038;-82
2024/03/26 02:07:16;;;;;;;7.88;2.40;;;;;;;;;;4978264;28;20042;-81
2024/03/26 02:10:01;;;;;;;5.53;2.67;;;;;;;;;;4977858;28;20023;-82
2024/03/26 02:12:45;;;;;;;4.18;2.67;;;;;;;;;;4969661;28;20061;-82
2024/03/26 02:15:31;;;;;;;6.90;2.47;;;;;;;;;;4973357;28;20046;-82
2024/03/26 02:18:16;;;;;;;4.07;2.20;;;;;;;;;;4979940;28;20043;-81
2024/03/26 02:21:01;;;;;;;5.28;2.03;;;;;;;;;;5015552;28;20048;-80
2024/03/26 02:23:46;;;;;;;7.45;3.00;;;;;;;;;;4965258;28;20019;-81
2024/03/26 02:26:31;;;;;;;9.07;2.40;;;;;;;;;;4978659;28;20115;-82
2024/03/26 02:29:17;;;;;;;5.07;2.30;;;;;;;;;;4964757;28;20464;-81
2024/03/26 02:32:02;;;;;;;9.00;2.40;;;;;;;;;;4974451;28;20473;-81
2024/03/26 02:34:47;;;;;;;6.05;2.35;;;;;;;;;;4976896;28;20069;-82
2024/03/26 02:37:33;;;;;;;6.07;2.50;;;;;;;;;;4962685;28;20022;-81
2024/03/26 02:40:18;;;;;;;3.50;2.35;;;;;;;;;;4977342;28;20543;-80
2024/03/26 02:43:03;;;;;;;4.68;1.95;;;;;;;;;;4966929;28;20427;-81
2024/03/26 02:45:49;;;;;;;5.50;2.42;;;;;;;;;;4987707;28;20068;-81
2024/03/26 02:48:34;;;;;;;4.78;2.30;;;;;;;;;;4964326;28;20026;-82
2024/03/26 02:51:19;;;;;;;5.65;2.35;;;;;;;;;;4994901;28;20026;-83
2024/03/26 02:54:04;;;;;;;5.22;2.70;;;;;;;;;;5062738;28;20036;-82
2024/03/26 02:56:50;;;;;;;8.48;3.35;;;;;;;;;;4975085;28;20026;-82
2024/03/26 02:59:35;;;;;;;5.57;2.17;;;;;;;;;;4976853;28;20473;-81
2024/03/26 03:02:20;;;;;;;5.38;2.83;;;;;;;;;;4988682;28;20055;-82
2024/03/26 03:05:05;;;;;;;6.32;2.50;;;;;;;;;;4964222;28;20024;-81
2024/03/26 03:07:49;;;;;;;6.18;2.10;;;;;;;;;;4972845;28;20096;-80
2024/03/26 03:10:34;;;;;;;5.78;2.60;;;;;;;;;;4975295;28;20022;-81
2024/03/26 03:13:19;;;;;;;8.43;2.20;;;;;;;;;;4980909;28;20045;-81
2024/03/26 03:16:05;;;;;;;5.45;2.60;;;;;;;;;;4986599;28;20117;-81
2024/03/26 03:18:50;;;;;;;6.68;2.85;;;;;;;;;;4972539;28;20900;-81
2024/03/26 03:21:36;;;;;;;4.05;3.10;;;;;;;;;;4985314;28;20082;-81
2024/03/26 03:24:21;;;;;;;2.97;1.80;;;;;;;;;;4968654;28;20073;-81
2024/03/26 03:27:06;;;;;;;5.45;2.33;;;;;;;;;;4981323;28;20026;-81
2024/03/26 03:29:51;;;;;;;4.72;2.20;;;;;;;;;;4972263;28;20101;-81
2024/03/26 03:32:37;;;;;;;3.35;2.38;;;;;;;;;;4978958;28;20022;-81
2024/03/26 03:35:22;;;;;;;3.80;2.17;;;;;;;;;;4986913;28;20057;-81
2024/03/26 03:38:07;;;;;;;4.47;2.25;;;;;;;;;;4981906;28;20026;-81
2024/03/26 03:40:52;;;;;;;6.78;3.22;;;;;;;;;;4994457;28;20026;-81
2024/03/26 03:43:38;;;;;;;7.32;3.10;;;;;;;;;;4968509;28;20026;-81
2024/03/26 03:46:23;;;;;;;6.97;2.28;;;;;;;;;;4985725;28;20023;-80
2024/03/26 03:49:08;;;;;;;3.40;2.05;;;;;;;;;;4960429;28;20114;-80
2024/03/26 03:51:54;;;;;;;8.32;2.75;;;;;;;;;;4972830;28;20022;-81
2024/03/26 03:54:40;;;;;;;7.95;2.88;;;;;;;;;;4956422;28;20019;-80
2024/03/26 03:57:25;;;;;;;8.43;3.60;;;;;;;;;;4972233;28;20031;-80
2024/03/26 04:00:11;;;;;;;6.72;3.10;;;;;;;;;;4971921;28;20384;-80
2024/03/26 04:02:56;;;;;;;4.88;2.53;;;;;;;;;;4984375;28;20037;-80
2024/03/26 04:05:41;;;;;;;4.05;1.95;;;;;;;;;;4974683;28;20037;-82
2024/03/26 04:08:26;;;;;;;5.82;2.83;;;;;;;;;;4984495;28;20091;-82
2024/03/26 04:11:12;;;;;;;4.85;2.60;;;;;;;;;;4974539;28;20038;-82
2024/03/26 04:13:57;;;;;;;7.13;2.67;;;;;;;;;;4976211;28;20042;-81
2024/03/26 04:16:46;;;;;;;3.70;2.50;;;;;;;;;;4971960;28;20042;-81
2024/03/26 04:19:31;;;;;;;6.43;2.70;;;;;;;;;;4980966;28;20054;-79
2024/03/26 04:22:16;;;;;;;5.10;2.53;;;;;;;;;;4965634;28;20042;-82
2024/03/26 04:25:01;;;;;;;5.45;2.80;;;;;;;;;;4961671;28;20382;-80
2024/03/26 04:27:47;;;;;;;4.72;2.47;;;;;;;;;;4976045;28;20030;-82
2024/03/26 04:30:32;;;;;;;6.18;2.95;;;;;;;;;;4971275;28;20458;-82
2024/03/26 04:33:17;;;;;;;6.05;2.25;;;;;;;;;;4982076;28;20047;-81
2024/03/26 04:36:02;;;;;;;4.22;2.00;;;;;;;;;;4986646;28;20023;-81
2024/03/26 04:38:48;;;;;;;7.53;2.50;;;;;;;;;;4981569;28;20121;-81
2024/03/26 04:41:33;;;;;;;11.65;2.83;;;;;;;;;;4994889;28;20058;-81
2024/03/26 04:44:18;;;;;;;6.65;3.00;;;;;;;;;;4964684;28;20111;-82
2024/03/26 04:47:03;;;;;;;9.18;3.03;;;;;;;;;;4981512;28;20041;-82
2024/03/26 04:49:49;;;;;;;6.13;2.92;;;;;;;;;;4961454;28;20037;-81
2024/03/26 04:52:34;;;;;;;7.35;3.03;;;;;;;;;;4971292;28;20038;-82
2024/03/26 04:55:19;;;;;;;3.50;2.15;;;;;;;;;;4965148;28;20163;-81
2024/03/26 04:58:05;;;;;;;5.93;2.67;;;;;;;;;;4971390;28;20090;-81
2024/03/26 05:00:50;;;;;;;6.05;3.25;;;;;;;;;;4984605;28;20032;-80
2024/03/26 05:03:35;;;;;;;7.60;3.25;;;;;;;;;;4971979;28;20027;-81
2024/03/26 05:06:21;;;;;;;5.20;2.70;;;;;;;;;;4983607;28;20042;-81
2024/03/26 05:09:09;;;;;;;7.53;2.80;;;;;;;;;;4989502;28;20033;-80
2024/03/26 05:11:54;;;;;;;9.20;3.50;;;;;;;;;;4963224;28;20080;-80
2024/03/26 05:14:40;;;;;;;5.55;2.50;;;;;;;;;;4974122;28;20047;-80
2024/03/26 05:17:25;;;;;;;3.15;2.17;;;;;;;;;;4972149;28;20076;-81
2024/03/26 05:20:10;;;;;;;7.20;3.45;;;;;;;;;;4966135;28;20022;-83
2024/03/26 05:22:56;;;;;;;6.75;2.95;;;;;;;;;;4988913;28;20023;-82
2024/03/26 05:25:41;;;;;;;6.10;2.72;;;;;;;;;;4977893;28;20031;-81
2024/03/26 05:28:26;;;;;;;4.90;2.70;;;;;;;;;;4962536;28;20034;-80
2024/03/26 05:31:16;;;;;;;7.53;3.00;;;;;;;;;;4957888;28;20413;-81
2024/03/26 05:34:01;;;;;;;8.27;3.20;;;;;;;;;;4978354;28;20030;-80
2024/03/26 05:36:46;;;;;;;7.40;3.28;;;;;;;;;;4961470;28;20035;-81
2024/03/26 05:39:32;;;;;;;7.82;3.08;;;;;;;;;;4973211;28;20038;-86
2024/03/26 05:42:17;;;;;;;5.53;2.65;;;;;;;;;;4976988;28;20026;-87
2024/03/26 05:45:02;;;;;;;5.57;3.10;;;;;;;;;;4966542;28;20033;-85
2024/03/26 05:47:47;;;;;;;5.82;2.92;;;;;;;;;;4966524;28;20243;-88
2024/03/26 05:50:33;;;;;;;4.45;2.58;;;;;;;;;;4960219;28;20023;-83
2024/03/26 05:53:21;;;;;;;7.80;3.80;;;;;;;;;;4969968;28;20031;-82
2024/03/26 05:56:06;;;;;;;6.88;3.33;;;;;;;;;;4975592;28;20105;-83
2024/03/26 05:58:53;;;;;;;7.35;3.97;;;;;;;;;;4988393;28;20027;-83
2024/03/26 06:01:38;;;;;;;5.03;2.75;;;;;;;;;;4970928;28;20027;-84
2024/03/26 06:04:24;;;;;;;7.68;3.10;;;;;;;;;;4970374;28;20106;-84
2024/03/26 06:07:09;;;;;;;8.88;3.63;;;;;;;;;;4975618;28;20043;-80
2024/03/26 06:13:24;;;;;;;5.88;3.25;;;;;;;;;;4968503;28;20066;-84
2024/03/26 06:16:10;;;;;;;5.38;2.58;;;;;;;;;;4975390;28;20030;-84
2024/03/26 06:18:56;;;;;;;4.60;2.97;;;;;;;;;;4968479;28;20022;-84
2024/03/26 06:21:41;;;;;;;7.53;3.40;;;;;;;;;;4981573;28;20109;-83
2024/03/26 06:24:26;;;;;;;8.15;4.82;;;;;;;;;;5036761;28;20047;-85
2024/03/26 06:27:11;;;;;;;13.07;4.53;;;;;;;;;;4994333;28;20026;-84
2024/03/26 06:29:58;;;;;;;10.05;3.85;;;;;;;;;;4980916;28;20030;-86
2024/03/26 06:32:44;;;;;;;10.02;3.53;;;;;;;;;;4979968;28;20027;-84
2024/03/26 06:35:29;;;;;;;6.88;3.35;;;;;;;;;;5034871;28;20103;-85
2024/03/26 06:38:14;;;;;;;7.50;3.80;;;;;;;;;;4969858;28;20035;-86
2024/03/26 06:41:00;;;;;;;14.15;4.10;;;;;;;;;;4945307;28;20015;-86
2024/03/26 06:43:45;;;;;;;6.72;3.47;;;;;;;;;;4947176;28;20024;-86
2024/03/26 06:46:31;;;;;;;7.22;3.05;;;;;;;;;;4947239;28;20035;-87
2024/03/26 06:49:16;;;;;;;16.65;4.32;;;;;;;;;;4946771;28;20063;-86
2024/03/26 06:52:02;;;;;;;8.73;3.60;;;;;;;;;;4947425;28;20030;-87
2024/03/26 06:54:47;;;;;;;5.43;3.28;;;;;;;;;;4949129;28;20035;-86
2024/03/26 06:57:32;;;;;;;5.93;3.05;;;;;;;;;;4966159;28;20027;-86
2024/03/26 07:00:18;;;;;;;8.45;3.45;;;;;;;;;;4966380;28;20081;-87
2024/03/26 07:03:03;;;;;;;5.57;3.95;;;;;;;;;;4966061;28;20681;-86
2024/03/26 07:05:49;;;;;;;6.72;3.50;;;;;;;;;;4966613;28;20070;-85
2024/03/26 07:08:34;;;;;;;12.77;3.92;;;;;;;;;;4976502;28;20026;-87
2024/03/26 07:11:20;;;;;;;6.10;3.35;;;;;;;;;;4979564;28;20062;-84
2024/03/26 07:14:07;;;;;;;7.55;3.53;;;;;;;;;;5523246;23;20048;-88
2024/03/26 07:16:53;;;;;;;8.93;3.20;;;;;;;;;;4945317;29;20059;-84
2024/03/26 07:19:38;;;;;;;10.15;3.47;;;;;;;;;;4945153;28;20050;-84
2024/03/26 07:22:24;;;;;;;6.43;3.60;;;;;;;;;;4941466;29;20039;-89
2024/03/26 07:28:34;;;;;;;5.80;3.13;;;;;;;;;;4984542;28;20289;-88
2024/03/26 07:31:26;;;;;;;7.65;3.22;;;;;;;;;;4958787;28;20034;-90
2024/03/26 07:44:47;;;;;;;7.88;3.97;;;;;;;;;;4947040;28;20070;-87
2024/03/26 07:47:32;;;;;;;5.38;2.88;;;;;;;;;;4955646;28;20046;-85
2024/03/26 07:50:17;;;;;;;5.07;2.30;;;;;;;;;;4945705;29;20016;-88
2024/03/26 07:53:03;;;;;;;7.07;2.88;;;;;;;;;;4950405;29;20059;-87
2024/03/26 07:55:49;;;;;;;7.82;3.25;;;;;;;;;;4946725;29;20118;-89
2024/03/26 07:58:34;;;;;;;6.90;4.32;;;;;;;;;;4950194;28;20427;-88
2024/03/26 08:01:19;;;;;;;6.75;3.00;;;;;;;;;;4930883;29;20081;-89
2024/03/26 08:04:05;;;;;;;5.60;3.15;;;;;;;;;;4959572;28;20090;-89
2024/03/26 08:06:51;;;;;;;6.40;3.10;;;;;;;;;;4949288;28;20394;-88
2024/03/26 08:09:36;;;;;;;6.68;2.53;;;;;;;;;;4964173;28;20049;-89
2024/03/26 08:12:22;;;;;;;9.77;3.47;;;;;;;;;;4945873;29;20070;-88
2024/03/26 08:15:07;;;;;;;9.20;3.38;;;;;;;;;;4940858;29;20130;-89
2024/03/26 08:17:53;;;;;;;9.52;4.60;;;;;;;;;;4944626;28;20026;-89
2024/03/26 08:20:40;;;;;;;6.68;3.50;;;;;;;;;;4958929;28;20042;-89
2024/03/26 08:23:25;;;;;;;9.30;3.20;;;;;;;;;;4957524;28;20023;-88
2024/03/26 08:26:10;;;;;;;6.22;3.45;;;;;;;;;;4985307;28;20030;-89
2024/03/26 08:28:56;;;;;;;8.93;3.30;;;;;;;;;;4957781;28;20035;-87
2024/03/26 08:31:46;;;;;;;7.53;3.28;;;;;;;;;;4947608;28;20071;-87
2024/03/26 08:34:31;;;;;;;5.15;3.30;;;;;;;;;;4940430;29;20028;-87
2024/03/26 08:37:17;;;;;;;5.25;3.03;;;;;;;;;;4923762;29;20113;-86
2024/03/26 08:40:02;;;;;;;6.63;3.22;;;;;;;;;;4941480;29;20020;-86
2024/03/26 08:42:48;;;;;;;6.38;3.20;;;;;;;;;;4942765;29;20463;-85
2024/03/26 08:45:39;;;;;;;6.53;3.20;;;;;;;;;;4939803;29;20301;-88
2024/03/26 08:48:26;;;;;;;12.57;2.65;;;;;;;;;;4937403;29;20043;-87
2024/03/26 08:51:12;;;;;;;7.38;2.47;;;;;;;;;;4937000;29;20035;-87
2024/03/26 08:53:58;;;;;;;4.68;2.22;;;;;;;;;;4937316;28;20023;-86
2024/03/26 08:56:43;;;;;;;3.78;2.00;;;;;;;;;;4935948;29;20023;-87
2024/03/26 08:59:28;;;;;;;6.85;2.38;;;;;;;;;;4928084;29;20077;-86
2024/03/26 09:02:14;;;;;;;6.22;2.67;;;;;;;;;;4931060;29;20118;-87
2024/03/26 09:04:59;;;;;;;6.88;2.95;;;;;;;;;;4929387;28;20031;-75
2024/03/26 09:07:44;;;;;;;5.13;2.55;;;;;;;;;;4935894;29;20461;-82
2024/03/26 09:10:30;;;;;;;5.90;2.72;;;;;;;;;;4938005;29;20032;-83
2024/03/26 09:13:15;;;;;;;9.38;2.97;;;;;;;;;;4951708;28;20119;-82
2024/03/26 09:16:00;;;;;;;9.35;3.35;;;;;;;;;;4935944;29;20051;-83
2024/03/26 09:18:46;;;;;;;7.78;3.45;;;;;;;;;;4941149;29;20118;-83
2024/03/26 09:21:31;;;;;;;6.75;3.40;;;;;;;;;;4940329;29;20040;-82
2024/03/26 09:24:17;;;;;;;9.18;3.67;;;;;;;;;;4933937;29;20041;-82
2024/03/26 09:27:03;;;;;;;6.40;3.00;;;;;;;;;;4931241;28;20425;-82
2024/03/26 09:29:48;;;;;;;10.57;3.53;;;;;;;;;;4938324;28;20027;-82
2024/03/26 09:32:33;;;;;;;4.97;2.88;;;;;;;;;;4943431;29;20481;-81
2024/03/26 09:35:19;;;;;;;6.97;2.85;;;;;;;;;;4946793;28;20061;-82
2024/03/26 09:38:05;;;;;;;10.15;3.03;;;;;;;;;;4935864;29;20058;-80
2024/03/26 09:40:54;;;;;;;5.15;2.85;;;;;;;;;;4940398;28;20023;-80
2024/03/26 09:43:41;;;;;;;5.95;2.70;;;;;;;;;;4939920;28;20031;-79
2024/03/26 09:46:26;;;;;;;6.97;3.47;;;;;;;;;;4940193;29;20039;-79
2024/03/26 09:49:12;;;;;;;5.65;2.33;;;;;;;;;;4940958;29;20420;-78
2024/03/26 09:51:58;;;;;;;7.00;2.83;;;;;;;;;;4942696;29;20038;-78
2024/03/26 09:54:44;;;;;;;6.07;2.90;;;;;;;;;;4937323;28;20032;-80
2024/03/26 09:57:30;;;;;;;5.55;2.97;;;;;;;;;;4941564;29;20043;-81
2024/03/26 10:00:15;;;;;;;5.75;2.63;;;;;;;;;;4931585;28;20509;-81
2024/03/26 10:03:04;;;;;;;5.72;2.70;;;;;;;;;;4940692;29;20030;-83
2024/03/26 10:05:49;;;;;;;5.83;2.67;;;;;;;;;;4931009;29;20031;-80
2024/03/26 10:08:34;;;;;;;6.25;2.60;;;;;;;;;;4934770;28;20042;-81
2024/03/26 10:11:20;;;;;;;7.18;3.28;;;;;;;;;;4932456;28;20078;-80
2024/03/26 10:14:05;;;;;;;5.30;2.80;;;;;;;;;;4937355;29;20090;-80
2024/03/26 10:16:50;;;;;;;6.32;3.00;;;;;;;;;;4941588;29;20152;-80
2024/03/26 10:19:35;;;;;;;7.97;3.65;;;;;;;;;;4938096;29;20046;-80
2024/03/26 10:22:21;;;;;;;7.07;2.78;;;;;;;;;;4926595;29;20035;-81
2024/03/26 10:25:06;;;;;;;5.60;2.85;;;;;;;;;;4934241;28;20051;-81
2024/03/26 10:27:52;;;;;;;6.03;2.97;;;;;;;;;;4934516;29;20032;-80
2024/03/26 10:30:37;;;;;;;6.40;2.85;;;;;;;;;;4942606;28;20035;-80
2024/03/26 10:33:23;;;;;;;6.20;3.22;;;;;;;;;;4942300;28;20038;-81
2024/03/26 10:36:09;;;;;;;5.70;3.47;;;;;;;;;;4952657;28;20020;-80
2024/03/26 10:38:55;;;;;;;5.88;3.60;;;;;;;;;;4941081;29;20043;-79
2024/03/26 10:41:41;;;;;;;6.53;3.15;;;;;;;;;;4934848;29;20031;-80
2024/03/26 10:44:27;;;;;;;6.20;3.17;;;;;;;;;;4948205;28;20032;-80
2024/03/26 10:47:12;;;;;;;10.27;3.72;;;;;;;;;;4937678;29;20115;-82
2024/03/26 10:49:57;;;;;;;9.27;4.30;;;;;;;;;;4946108;28;20109;-81
2024/03/26 10:52:43;;;;;;;7.40;3.15;;;;;;;;;;4937573;28;20043;-82
2024/03/26 10:55:30;;;;;;;6.53;3.55;;;;;;;;;;4933613;29;20043;-81
2024/03/26 10:58:17;;;;;;;12.88;3.80;;;;;;;;;;4938090;29;20068;-78
2024/03/26 11:01:04;;;;;;;5.38;2.92;;;;;;;;;;4929355;28;20029;-79
2024/03/26 11:03:50;;;;;;;5.60;3.17;;;;;;;;;;4935260;29;20101;-80
2024/03/26 11:06:35;;;;;;;7.25;2.90;;;;;;;;;;4938072;29;20088;-79
2024/03/26 11:09:24;;;;;;;9.13;3.22;;;;;;;;;;4945972;28;20046;-79
2024/03/26 11:12:12;;;;;;;13.20;3.60;;;;;;;;;;4928220;29;20027;-79
2024/03/26 11:14:57;;;;;;;9.52;3.17;;;;;;;;;;4929795;29;20290;-79
2024/03/26 11:17:49;;;;;;;6.35;3.40;;;;;;;;;;4941706;28;20035;-79
2024/03/26 11:20:34;;;;;;;6.57;3.50;;;;;;;;;;4945089;29;20546;-78
2024/03/26 11:23:20;;;;;;;8.93;3.45;;;;;;;;;;4944966;29;20378;-79
2024/03/26 11:26:05;;;;;;;6.22;3.45;;;;;;;;;;4932492;29;20035;-79
2024/03/26 11:28:51;;;;;;;3.33;2.40;;;;;;;;;;4941758;28;20417;-80
2024/03/26 11:31:36;;;;;;;5.28;2.75;;;;;;;;;;4926131;28;20354;-80
2024/03/26 11:34:23;;;;;;;5.93;3.10;;;;;;;;;;4940673;29;20478;-81
2024/03/26 11:37:08;;;;;;;6.80;2.63;;;;;;;;;;4930149;29;20068;-80
2024/03/26 11:39:53;;;;;;;5.35;2.70;;;;;;;;;;4933088;29;20035;-79
2024/03/26 11:42:39;;;;;;;9.23;3.30;;;;;;;;;;4942880;29;20062;-80
2024/03/26 11:45:24;;;;;;;10.43;2.78;;;;;;;;;;4944135;29;20031;-80
2024/03/26 11:48:13;;;;;;;7.78;2.35;;;;;;;;;;4931874;29;20224;-79
2024/03/26 11:50:58;;;;;;;5.18;2.88;;;;;;;;;;4944189;29;20493;-79
2024/03/26 11:53:43;;;;;;;6.38;2.60;;;;;;;;;;4934271;29;20047;-80
2024/03/26 11:56:29;;;;;;;4.00;2.25;;;;;;;;;;4940768;29;20092;-80
2024/03/26 11:59:15;;;;;;;3.83;2.30;;;;;;;;;;4944197;29;20015;-79
2024/03/26 12:02:00;;;;;;;10.88;3.20;;;;;;;;;;4938532;29;20102;-79
2024/03/26 12:04:45;;;;;;;6.25;3.22;;;;;;;;;;4944413;28;20483;-79
2024/03/26 12:07:31;;;;;;;9.43;4.07;;;;;;;;;;4946163;28;20564;-79
2024/03/26 12:10:16;;;;;;;5.10;2.60;;;;;;;;;;4938924;28;20027;-78
2024/03/26 12:13:02;;;;;;;4.28;2.85;;;;;;;;;;4940933;28;20055;-78
2024/03/26 12:15:48;;;;;;;8.68;2.65;;;;;;;;;;4936978;29;20127;-78
2024/03/26 12:18:33;;;;;;;6.40;3.00;;;;;;;;;;4930369;29;20035;-79
2024/03/26 12:21:18;;;;;;;3.40;2.50;;;;;;;;;;4935390;29;20023;-78
2024/03/26 12:24:03;;;;;;;3.92;2.65;;;;;;;;;;4938590;29;20027;-78
2024/03/26 12:26:49;;;;;;;5.60;2.50;;;;;;;;;;4927239;29;20024;-77
2024/03/26 12:29:34;;;;;;;11.90;2.45;;;;;;;;;;4935921;28;20040;-76
2024/03/26 12:32:19;;;;;;;8.57;2.63;;;;;;;;;;4927942;29;20500;-77
2024/03/26 12:35:05;;;;;;;4.03;2.28;;;;;;;;;;4936864;29;20154;-77
2024/03/26 12:37:50;;;;;;;4.32;2.45;;;;;;;;;;4955954;28;20073;-77
2024/03/26 12:40:35;;;;;;;6.03;2.13;;;;;;;;;;4937843;28;20024;-77
2024/03/26 12:43:21;;;;;;;4.63;2.35;;;;;;;;;;4934610;29;20431;-79
2024/03/26 12:46:06;;;;;;;6.68;2.33;;;;;;;;;;4934299;29;20445;-78
2024/03/26 12:48:51;;;;;;;3.75;2.25;;;;;;;;;;4934698;29;20382;-78
2024/03/26 12:51:36;;;;;;;6.88;2.55;;;;;;;;;;4948523;28;20038;-78
2024/03/26 12:54:23;;;;;;;3.10;2.22;;;;;;;;;;4944264;29;20038;-78
2024/03/26 12:57:08;;;;;;;7.95;2.72;;;;;;;;;;4921663;29;20055;-78
2024/03/26 12:59:53;;;;;;;7.85;2.40;;;;;;;;;;4936939;29;20037;-78
2024/03/26 13:02:39;;;;;;;6.88;2.22;;;;;;;;;;4943153;29;20027;-79
2024/03/26 13:05:24;;;;;;;5.25;2.35;;;;;;;;;;4939708;29;20038;-78
2024/03/26 13:08:09;;;;;;;8.50;2.50;;;;;;;;;;4937760;29;20019;-78
2024/03/26 13:10:55;;;;;;;4.35;1.75;;;;;;;;;;4938524;29;20118;-78
2024/03/26 13:13:41;;;;;;;6.50;2.10;;;;;;;;;;4933335;29;20031;-78
2024/03/26 13:16:26;;;;;;;5.47;2.40;;;;;;;;;;4935644;29;20153;-78
2024/03/26 13:19:11;;;;;;;4.50;2.72;;;;;;;;;;4942465;29;20028;-78
2024/03/26 13:21:57;;;;;;;5.30;2.15;;;;;;;;;;4942466;29;20051;-78
2024/03/26 13:24:42;;;;;;;5.93;2.55;;;;;;;;;;4941926;29;20034;-77
2024/03/26 13:27:27;;;;;;;2.85;1.77;;;;;;;;;;4937100;29;20032;-78
2024/03/26 13:30:12;;;;;;;2.67;1.70;;;;;;;;;;4931311;28;20059;-79
2024/03/26 13:36:33;;;;;;;3.30;1.67;;;;;;;;;;4953480;28;20030;-86
2024/03/26 13:39:18;;;;;;;4.00;1.90;;;;;;;;;;4936468;28;20031;-89
2024/03/26 13:42:03;;;;;;;2.97;1.58;;;;;;;;;;4935980;29;20725;-86
2024/03/26 13:44:49;;;;;;;3.38;1.90;;;;;;;;;;4935791;28;20023;-88
2024/03/26 13:47:34;;;;;;;2.70;1.50;;;;;;;;;;4941612;29;20035;-88
2024/03/26 13:50:19;;;;;;;4.88;1.80;;;;;;;;;;4936112;29;20375;-86
2024/03/26 13:53:04;;;;;;;3.45;1.75;;;;;;;;;;4939824;29;20061;-86
2024/03/26 13:55:50;;;;;;;5.15;1.60;;;;;;;;;;4940659;29;20029;-85
2024/03/26 13:58:35;;;;;;;3.40;1.50;;;;;;;;;;4931119;28;20039;-86
2024/03/26 14:01:20;;;;;;;1.80;1.30;;;;;;;;;;4961831;28;20118;-84
2024/03/26 14:04:05;;;;;;;2.20;1.52;;;;;;;;;;4942962;29;20035;-85
2024/03/26 14:06:51;;;;;;;6.38;1.63;;;;;;;;;;4931223;29;20080;-85
2024/03/26 14:09:39;;;;;;;5.00;1.80;;;;;;;;;;4941177;29;20031;-85
2024/03/26 14:12:24;;;;;;;2.90;1.55;;;;;;;;;;4942645;29;20094;-85
2024/03/26 14:15:10;;;;;;;3.55;1.95;;;;;;;;;;4940302;29;20154;-84
2024/03/26 14:17:55;;;;;;;2.78;1.48;;;;;;;;;;4937619;29;20125;-84
2024/03/26 14:20:41;;;;;;;4.65;1.52;;;;;;;;;;4936426;28;20030;-84
2024/03/26 14:23:26;;;;;;;4.72;1.38;;;;;;;;;;4934555;28;20043;-85
2024/03/26 14:26:12;;;;;;;1.63;1.20;;;;;;;;;;4952964;28;20109;-85
2024/03/26 14:28:58;;;;;;;3.53;1.70;;;;;;;;;;4945304;29;20031;-85
2024/03/26 14:31:43;;;;;;;8.07;1.42;;;;;;;;;;4935063;28;20118;-86
2024/03/26 14:34:28;;;;;;;3.08;1.35;;;;;;;;;;4939718;29;20039;-87
2024/03/26 14:37:14;;;;;;;4.03;1.40;;;;;;;;;;4943154;29;20042;-86
2024/03/26 14:39:59;;;;;;;1.40;1.25;;;;;;;;;;4931103;29;20114;-85
2024/03/26 14:42:45;;;;;;;1.80;1.38;;;;;;;;;;4968619;28;20043;-85
2024/03/26 14:45:30;;;;;;;2.90;1.33;;;;;;;;;;4933102;29;20128;-85
2024/03/26 14:48:16;;;;;;;5.40;2.17;;;;;;;;;;4940399;29;20035;-85
2024/03/26 14:51:03;;;;;;;3.75;1.55;;;;;;;;;;4968692;28;20039;-85
2024/03/26 14:53:48;;;;;;;3.42;1.25;;;;;;;;;;4935318;29;20444;-85
2024/03/26 14:56:33;;;;;;;5.32;1.27;;;;;;;;;;4939186;29;20394;-87
2024/03/26 14:59:19;;;;;;;4.32;1.75;;;;;;;;;;4936467;29;20035;-92
2024/03/26 15:02:04;;;;;;;4.30;1.60;;;;;;;;;;4948374;28;20045;-90
2024/03/26 15:04:50;;;;;;;3.67;1.30;;;;;;;;;;4935282;28;20089;-87
2024/03/26 15:07:35;;;;;;;1.85;1.42;;;;;;;;;;4941036;28;20035;-85
2024/03/26 15:10:22;;;;;;;2.75;1.20;;;;;;;;;;4942798;29;20113;-93
2024/03/26 15:13:08;;;;;;;2.60;1.48;;;;;;;;;;4949887;28;20038;-91
2024/03/26 15:15:53;;;;;;;4.55;1.30;;;;;;;;;;4919738;29;20051;-78
2024/03/26 15:18:39;;;;;;;4.97;1.52;;;;;;;;;;4941729;29;20142;-80
2024/03/26 15:21:24;;;;;;;5.32;1.85;;;;;;;;;;4932939;29;20041;-76
2024/03/26 15:24:09;;;;;;;1.73;1.27;;;;;;;;;;4939662;28;20470;-79
2024/03/26 15:32:59;;;;;;;4.88;1.45;;;;;;;;;;4944624;29;20082;-77
2024/03/26 15:35:44;;;;;;;5.70;1.52;;;;;;;;;;4934937;28;20406;-78
2024/03/26 15:38:30;;;;;;;2.55;1.58;;;;;;;;;;4939744;28;20034;-77
2024/03/26 15:41:15;;;;;;;3.97;2.00;;;;;;;;;;4944749;29;20015;-76
2024/03/26 15:44:00;;;;;;;2.97;1.40;;;;;;;;;;4941269;29;20034;-76
2024/03/26 15:46:45;;;;;;;2.42;1.38;;;;;;;;;;4941322;29;20066;-77
2024/03/26 15:49:31;;;;;;;2.45;1.33;;;;;;;;;;4934168;29;20100;-78
2024/03/26 15:52:16;;;;;;;2.20;1.13;;;;;;;;;;4942411;29;20031;-77
2024/03/26 15:55:02;;;;;;;4.25;1.10;;;;;;;;;;4937790;29;20079;-79
2024/03/26 15:57:48;;;;;;;1.30;1.20;;;;;;;;;;4928702;28;20020;-78
2024/03/26 16:00:33;;;;;;;1.98;1.23;;;;;;;;;;4938176;28;20027;-77
2024/03/26 16:03:18;;;;;;;1.98;1.25;;;;;;;;;;4933570;29;20019;-77
2024/03/26 16:06:06;;;;;;;1.80;1.42;;;;;;;;;;4942048;28;20157;-78
2024/03/26 16:08:52;;;;;;;7.97;1.60;;;;;;;;;;4932139;29;20038;-78
2024/03/26 16:11:37;;;;;;;1.95;1.10;;;;;;;;;;4936922;29;20050;-79
2024/03/26 16:14:22;;;;;;;3.20;1.77;;;;;;;;;;4939237;29;20397;-79
2024/03/26 16:17:07;;;;;;;4.97;1.48;;;;;;;;;;4933035;28;20071;-79
2024/03/26 16:19:53;;;;;;;1.70;1.30;;;;;;;;;;4936388;29;20055;-79
2024/03/26 16:22:38;;;;;;;3.35;1.60;;;;;;;;;;4939004;29;20081;-81
2024/03/26 16:25:23;;;;;;;6.03;1.77;;;;;;;;;;4929084;29;20055;-78
2024/03/26 16:28:08;;;;;;;4.18;1.60;;;;;;;;;;4933186;29;20027;-80
2024/03/26 16:30:55;;;;;;;4.47;1.70;;;;;;;;;;4927315;29;20054;-78
2024/03/26 16:33:40;;;;;;;5.20;2.10;;;;;;;;;;4938235;29;20050;-80
2024/03/26 16:36:24;;;;;;;1.90;1.50;;;;;;;;;;4938226;28;20070;-79
2024/03/26 16:39:10;;;;;;;2.65;1.90;;;;;;;;;;4937194;28;20030;-80
2024/03/26 16:41:56;;;;;;;7.13;2.55;;;;;;;;;;4937493;28;20042;-79
2024/03/26 16:44:41;;;;;;;6.60;2.80;;;;;;;;;;4926187;29;20034;-79
2024/03/26 16:47:26;;;;;;;5.57;3.10;;;;;;;;;;4944126;29;20180;-80
2024/03/26 16:50:11;;;;;;;7.85;3.35;;;;;;;;;;4932280;29;20246;-81
2024/03/26 16:52:59;;;;;;;4.75;2.78;;;;;;;;;;4929693;29;20042;-80
2024/03/26 16:55:45;;;;;;;5.88;3.05;;;;;;;;;;4933393;29;20081;-81
2024/03/26 16:58:30;;;;;;;9.23;3.28;;;;;;;;;;4941434;29;20349;-79